Flight Report

Flight Date
04 Feb 2024 07:02 UTC
Review Status
Approved
Flight Number
C011
Departure ICAO
Arrival ICAO
Route
CYYC RWY 35: → ELERO → SAVED → VR → RWY 26L
Aircraft
BE9L
Fuel Used
575kg
Distance
373nm
Passengers
4
Cargo
147kg
Departure Time
02:25:00
Arrival Time
06:15:00
Flight Duration
03:50:00
Earnings
$0.00
Performance Score
100%
Landing Rate
N/A
Flight Type
Charter
Comments
It was a dark and stormy night ... CYYC 040006Z 36013G21KT 15SM OVC048 01/M07 A2997 RMK SC8 SLP187 CYVR 040007Z 29010KT 20SM FEW020 FEW070 SCT180 BKN230 07/06 A3006 RMK SC1AC1AS3CI4 SC TR AC TR